createdAt,value
2022-12-19T00:01:58.312Z,19.53
2022-12-19T00:04:26.526Z,18.10
2022-12-19T00:06:54.268Z,14.63
2022-12-19T00:09:22.446Z,17.97
2022-12-19T00:11:50.242Z,16.73
2022-12-19T00:14:19.359Z,14.67
2022-12-19T00:16:47.182Z,21.30
2022-12-19T00:19:15.868Z,16.00
2022-12-19T00:21:43.581Z,16.30
2022-12-19T00:24:20.474Z,18.27
2022-12-19T00:26:49.360Z,17.20
2022-12-19T00:29:17.152Z,17.20
2022-12-19T00:31:46.309Z,21.77
2022-12-19T00:34:14.454Z,16.03
2022-12-19T00:36:42.232Z,20.10
2022-12-19T00:39:11.058Z,18.23
2022-12-19T00:41:41.644Z,18.43
2022-12-19T00:44:11.685Z,16.17
2022-12-19T00:46:39.487Z,17.63
2022-12-19T00:49:08.591Z,17.83
2022-12-19T00:51:37.169Z,17.00
2022-12-19T00:54:07.368Z,21.73
2022-12-19T00:56:37.581Z,18.57
2022-12-19T00:59:05.986Z,19.63
2022-12-19T01:01:34.641Z,18.10
2022-12-19T01:06:52.135Z,19.30
2022-12-19T01:09:21.938Z,26.03
2022-12-19T01:12:07.314Z,20.30
2022-12-19T01:14:35.519Z,20.03
2022-12-19T01:17:03.737Z,18.20
2022-12-19T01:19:31.491Z,20.33
2022-12-19T01:22:01.436Z,22.97
2022-12-19T01:24:30.345Z,19.30
2022-12-19T01:26:58.662Z,19.40
2022-12-19T01:29:28.125Z,19.90
2022-12-19T01:31:56.634Z,20.43
2022-12-19T01:34:24.789Z,21.83
2022-12-19T01:36:52.948Z,20.57
2022-12-19T01:39:22.131Z,19.87
2022-12-19T01:41:52.959Z,22.77
2022-12-19T01:44:20.798Z,22.47
2022-12-19T01:46:49.846Z,20.60
2022-12-19T01:49:20.227Z,21.97
2022-12-19T01:51:53.969Z,18.93
2022-12-19T01:54:24.752Z,18.70
2022-12-19T01:56:54.802Z,20.23
2022-12-19T01:59:25.187Z,24.33
2022-12-19T02:01:53.963Z,23.30
2022-12-19T02:04:21.765Z,22.10
2022-12-19T02:06:49.962Z,19.77
2022-12-19T02:09:17.715Z,21.30
2022-12-19T02:11:49.746Z,19.40
2022-12-19T02:14:17.555Z,22.37
2022-12-19T02:16:48.950Z,20.50
2022-12-19T02:19:41.933Z,20.17
2022-12-19T02:22:14.843Z,24.00
2022-12-19T02:25:10.428Z,22.27
2022-12-19T02:28:03.006Z,20.23
2022-12-19T02:30:42.245Z,20.10
2022-12-19T02:33:13.132Z,21.90
2022-12-19T02:35:42.249Z,19.70
2022-12-19T02:38:13.254Z,22.03
2022-12-19T02:40:42.738Z,21.97
2022-12-19T02:43:10.415Z,22.23
2022-12-19T02:45:40.138Z,22.67
2022-12-19T02:48:09.219Z,22.80
2022-12-19T02:50:39.130Z,19.90
2022-12-19T02:53:06.935Z,20.90
2022-12-19T02:55:37.850Z,22.03
2022-12-19T02:58:44.354Z,21.87
2022-12-19T03:01:22.263Z,22.10
2022-12-19T03:03:56.277Z,24.33
2022-12-19T03:06:26.548Z,23.47
2022-12-19T03:08:56.962Z,22.97
2022-12-19T03:11:25.194Z,21.17
2022-12-19T03:13:54.948Z,24.20
2022-12-19T03:16:24.299Z,24.37
2022-12-19T03:18:55.137Z,22.60
2022-12-19T03:21:24.831Z,21.23
2022-12-19T03:23:54.551Z,21.07
2022-12-19T03:26:24.294Z,20.07
2022-12-19T03:28:53.814Z,22.53
2022-12-19T03:31:24.970Z,22.70
2022-12-19T03:33:55.728Z,19.67
2022-12-19T03:36:26.315Z,22.47
2022-12-19T03:38:54.314Z,22.40
2022-12-19T03:41:42.772Z,21.57
2022-12-19T03:44:09.930Z,20.60
2022-12-19T03:46:41.375Z,20.00
2022-12-19T03:49:09.393Z,19.93
2022-12-19T03:51:41.809Z,18.27
2022-12-19T03:54:10.936Z,20.20
2022-12-19T03:56:42.758Z,23.90
2022-12-19T03:59:12.095Z,20.10
2022-12-19T04:01:41.307Z,18.73
2022-12-19T04:04:12.693Z,19.90
2022-12-19T04:06:40.897Z,20.87
2022-12-19T04:09:08.722Z,20.10
2022-12-19T04:11:38.664Z,20.80
2022-12-19T04:14:08.888Z,17.60
2022-12-19T04:16:41.237Z,21.77
2022-12-19T04:19:11.593Z,19.93
2022-12-19T04:21:43.973Z,19.60
2022-12-19T04:24:13.275Z,21.57
2022-12-19T04:26:43.917Z,21.77
2022-12-19T04:29:12.107Z,20.03
2022-12-19T04:31:41.321Z,21.07
2022-12-19T04:34:09.079Z,20.23
2022-12-19T04:36:36.832Z,19.53
2022-12-19T04:39:05.491Z,19.17
2022-12-19T04:41:33.401Z,20.77
2022-12-19T04:44:01.822Z,22.53
2022-12-19T04:46:29.960Z,17.83
2022-12-19T04:48:59.371Z,21.07
2022-12-19T04:51:27.456Z,19.30
2022-12-19T04:53:55.518Z,20.83
2022-12-19T04:56:23.588Z,20.13
2022-12-19T04:58:51.529Z,19.90
2022-12-19T05:01:19.919Z,19.90
2022-12-19T05:03:52.689Z,20.97
2022-12-19T05:06:24.534Z,19.33
2022-12-19T05:08:52.258Z,22.83
2022-12-19T05:11:20.351Z,18.30
2022-12-19T05:13:49.823Z,19.03
2022-12-19T05:16:17.771Z,21.23
2022-12-19T05:18:45.653Z,22.23
2022-12-19T05:21:13.477Z,19.90
2022-12-19T05:23:42.691Z,19.67
2022-12-19T05:26:12.016Z,26.70
2022-12-19T05:28:40.040Z,19.33
2022-12-19T05:31:09.222Z,20.20
2022-12-19T05:33:37.360Z,23.43
2022-12-19T05:36:06.241Z,21.67
2022-12-19T05:38:34.247Z,18.07
2022-12-19T05:41:07.688Z,19.93
2022-12-19T05:43:35.452Z,20.40
2022-12-19T05:46:04.575Z,18.17
2022-12-19T05:48:32.374Z,19.30
2022-12-19T05:51:00.125Z,21.97
2022-12-19T05:53:28.865Z,21.37
2022-12-19T05:56:05.493Z,20.13
2022-12-19T05:58:34.074Z,18.03
2022-12-19T06:01:05.015Z,19.20
2022-12-19T06:03:32.961Z,16.53
2022-12-19T06:06:03.688Z,20.90
2022-12-19T06:08:31.904Z,18.87
2022-12-19T06:11:00.404Z,18.60
2022-12-19T06:13:29.910Z,21.50
2022-12-19T06:16:00.943Z,20.37
2022-12-19T06:18:29.439Z,22.43
2022-12-19T06:20:58.853Z,20.80
2022-12-19T06:23:26.949Z,19.13
2022-12-19T06:25:56.598Z,21.03
2022-12-19T06:28:24.414Z,22.83
2022-12-19T06:30:54.343Z,18.40
2022-12-19T06:33:22.379Z,18.37
2022-12-19T06:35:50.657Z,18.50
2022-12-19T06:38:18.421Z,18.20
2022-12-19T06:41:04.499Z,21.00
2022-12-19T06:43:32.176Z,17.70
2022-12-19T06:46:01.312Z,21.60
2022-12-19T06:48:29.253Z,20.50
2022-12-19T06:50:57.611Z,18.90
2022-12-19T06:53:25.825Z,22.47
2022-12-19T06:55:54.914Z,19.90
2022-12-19T06:58:24.402Z,20.67
2022-12-19T07:00:52.918Z,19.20
2022-12-19T07:03:23.723Z,19.13
2022-12-19T07:05:51.456Z,18.30
2022-12-19T07:08:19.131Z,21.37
2022-12-19T07:10:47.566Z,18.23
2022-12-19T07:13:15.536Z,21.43
2022-12-19T07:15:43.891Z,18.67
2022-12-19T07:18:12.010Z,19.13
2022-12-19T07:20:45.251Z,20.27
2022-12-19T07:23:18.086Z,20.93
2022-12-19T07:25:46.233Z,21.70
2022-12-19T07:28:14.111Z,20.40
2022-12-19T07:30:42.522Z,18.63
2022-12-19T07:33:11.525Z,21.10
2022-12-19T07:35:41.907Z,20.87
2022-12-19T07:38:09.603Z,19.10
2022-12-19T07:40:37.534Z,20.87
2022-12-19T07:43:06.402Z,20.40
2022-12-19T07:45:34.509Z,20.00
2022-12-19T07:48:02.759Z,16.93
2022-12-19T07:50:30.612Z,16.70
2022-12-19T07:53:00.108Z,20.20
2022-12-19T07:55:27.892Z,18.03
2022-12-19T07:57:56.555Z,20.00
2022-12-19T08:00:24.385Z,16.57
2022-12-19T08:02:52.524Z,18.77
2022-12-19T08:05:20.275Z,17.67
2022-12-19T08:07:48.375Z,14.47
2022-12-19T08:10:17.699Z,17.83
2022-12-19T08:12:45.826Z,15.70
2022-12-19T08:15:13.495Z,19.23
2022-12-19T08:17:41.760Z,18.20
2022-12-19T08:20:11.203Z,19.53
2022-12-19T08:22:38.872Z,17.87
2022-12-19T08:25:08.933Z,17.00
2022-12-19T08:27:38.179Z,15.67
2022-12-19T08:30:07.435Z,18.07
2022-12-19T08:32:36.723Z,17.80
2022-12-19T08:35:05.585Z,14.90
2022-12-19T08:37:35.890Z,14.67
2022-12-19T08:40:04.049Z,17.93
2022-12-19T08:42:32.278Z,16.10
2022-12-19T08:45:01.754Z,17.47
2022-12-19T08:47:29.808Z,15.77
2022-12-19T08:49:57.885Z,16.47
2022-12-19T08:52:25.610Z,16.40
2022-12-19T08:54:53.629Z,15.33
2022-12-19T08:57:21.537Z,14.77
2022-12-19T08:59:49.414Z,13.70
2022-12-19T09:02:20.128Z,19.43
2022-12-19T09:06:00.117Z,14.00
2022-12-19T09:07:38.579Z,13.17
2022-12-19T09:10:08.700Z,13.60
2022-12-19T09:12:36.380Z,14.37
2022-12-19T09:15:04.704Z,15.53
2022-12-19T09:17:33.761Z,15.10
2022-12-19T09:20:01.441Z,14.10
2022-12-19T09:22:29.768Z,16.30
2022-12-19T09:24:57.493Z,12.90
2022-12-19T09:27:25.708Z,13.43
2022-12-19T09:29:53.613Z,14.57
2022-12-19T09:32:21.914Z,13.60
2022-12-19T09:34:51.239Z,13.47
2022-12-19T09:37:19.770Z,14.20
2022-12-19T09:39:47.851Z,15.60
2022-12-19T09:42:41.409Z,13.10
2022-12-19T09:45:42.514Z,15.20
2022-12-19T09:48:23.975Z,12.27
2022-12-19T09:51:09.412Z,11.80
2022-12-19T09:53:41.877Z,13.00
2022-12-19T09:56:12.357Z,11.40
2022-12-19T09:58:42.107Z,13.00
2022-12-19T10:01:16.089Z,11.43
2022-12-19T10:03:46.443Z,12.00
2022-12-19T10:07:12.935Z,14.07
2022-12-19T10:10:05.966Z,11.67
2022-12-19T10:12:42.983Z,11.70
2022-12-19T10:14:57.276Z,12.03
2022-12-19T10:17:30.619Z,11.50
2022-12-19T10:20:17.643Z,10.63
2022-12-19T10:22:52.931Z,9.63
2022-12-19T10:25:30.395Z,14.57
2022-12-19T10:28:01.242Z,11.67
2022-12-19T10:30:31.915Z,11.27
2022-12-19T10:33:04.173Z,10.37
2022-12-19T10:35:34.742Z,11.50
2022-12-19T10:38:13.735Z,9.80
2022-12-19T10:40:44.623Z,9.47
2022-12-19T10:43:19.063Z,11.23
2022-12-19T10:45:52.870Z,8.80
2022-12-19T10:48:30.668Z,10.00
2022-12-19T10:51:05.107Z,8.77
2022-12-19T10:53:36.373Z,9.80
2022-12-19T10:56:12.445Z,10.47
2022-12-19T10:58:42.887Z,10.40
2022-12-19T11:01:16.044Z,8.90
2022-12-19T11:03:46.574Z,9.20
2022-12-19T11:06:41.944Z,9.53
2022-12-19T11:09:22.443Z,14.33
2022-12-19T11:16:10.255Z,14.93
2022-12-19T11:20:36.551Z,11.43
2022-12-19T11:22:24.727Z,14.17
2022-12-19T11:29:29.856Z,9.83
2022-12-19T11:29:30.830Z,15.03
2022-12-19T11:29:38.523Z,12.90
2022-12-19T11:30:38.169Z,10.87
2022-12-19T11:32:39.416Z,10.47
2022-12-19T11:35:17.483Z,11.50
2022-12-19T11:37:48.959Z,13.20
2022-12-19T11:40:18.741Z,8.97
2022-12-19T11:43:11.014Z,11.63
2022-12-19T11:45:42.040Z,13.67
2022-12-19T11:48:12.729Z,12.47
2022-12-19T11:50:44.773Z,10.30
2022-12-19T11:53:19.200Z,10.23
2022-12-19T11:55:49.254Z,12.23
2022-12-19T11:58:43.864Z,10.40
2022-12-19T12:01:17.116Z,14.27
2022-12-19T12:04:01.113Z,9.63
2022-12-19T12:06:32.293Z,10.70
2022-12-19T12:10:53.825Z,13.30
2022-12-19T12:19:04.531Z,8.30
2022-12-19T12:26:51.553Z,12.67
2022-12-19T12:30:30.946Z,10.40
2022-12-19T12:31:30.806Z,9.30
2022-12-19T12:31:49.681Z,10.33
2022-12-19T12:31:57.251Z,8.43
2022-12-19T12:32:06.046Z,9.03
2022-12-19T12:35:40.777Z,10.70
2022-12-19T12:37:15.214Z,8.63
2022-12-19T12:38:22.495Z,9.00
2022-12-19T12:40:59.166Z,8.10
2022-12-19T12:43:36.192Z,8.80
2022-12-19T12:46:04.614Z,11.43
2022-12-19T12:48:37.108Z,10.60
2022-12-19T12:51:05.606Z,12.13
2022-12-19T12:53:35.034Z,10.93
2022-12-19T12:56:04.411Z,7.90
2022-12-19T12:59:21.147Z,8.37
2022-12-19T13:01:52.700Z,8.40
2022-12-19T13:04:26.541Z,10.43
2022-12-19T13:07:12.612Z,10.53
2022-12-19T13:09:40.451Z,8.80
2022-12-19T13:12:35.533Z,11.20
2022-12-19T13:25:55.289Z,9.10
2022-12-19T13:28:47.359Z,10.07
2022-12-19T13:31:22.928Z,8.43
2022-12-19T13:34:18.703Z,10.50
2022-12-19T13:39:49.007Z,8.50
2022-12-19T13:39:54.296Z,7.87
2022-12-19T13:42:52.618Z,10.10
2022-12-19T13:45:35.987Z,10.00
2022-12-19T13:48:05.975Z,13.60
2022-12-19T13:50:38.022Z,8.80
2022-12-19T13:53:10.457Z,9.60
2022-12-19T13:55:41.051Z,8.70
2022-12-19T13:58:22.077Z,8.30
2022-12-19T14:01:00.197Z,10.17
2022-12-19T14:03:37.586Z,8.90
2022-12-19T14:06:16.266Z,9.50
2022-12-19T14:08:46.832Z,9.73
2022-12-19T14:11:36.372Z,9.50
2022-12-19T14:14:28.065Z,9.13
2022-12-19T14:16:56.951Z,9.60
2022-12-19T14:19:25.815Z,7.57
2022-12-19T14:22:04.003Z,10.53
2022-12-19T14:24:40.257Z,9.73
2022-12-19T14:28:21.570Z,8.10
2022-12-19T14:30:30.181Z,8.83
2022-12-19T14:33:44.566Z,10.07
2022-12-19T14:36:08.791Z,8.00
2022-12-19T14:39:24.217Z,8.07
2022-12-19T14:41:40.119Z,7.77
2022-12-19T14:51:25.267Z,8.53
2022-12-19T14:52:25.122Z,9.73
2022-12-19T14:54:03.016Z,10.03
2022-12-19T14:54:48.108Z,7.80
2022-12-19T14:56:16.610Z,10.00
2022-12-19T14:58:54.748Z,7.10
2022-12-19T15:01:23.333Z,10.50
2022-12-19T15:04:49.061Z,9.03
2022-12-19T15:07:08.848Z,7.70
2022-12-19T15:11:04.725Z,8.30
2022-12-19T15:14:48.363Z,10.70
2022-12-19T15:15:41.511Z,9.23
2022-12-19T15:18:19.595Z,9.50
2022-12-19T15:20:49.045Z,8.50
2022-12-19T15:23:21.942Z,7.20
2022-12-19T15:26:07.323Z,8.30
2022-12-19T15:28:38.955Z,12.00
2022-12-19T15:31:08.109Z,7.73
2022-12-19T15:33:35.826Z,8.63
2022-12-19T15:36:05.630Z,8.37
2022-12-19T15:38:33.728Z,8.13
2022-12-19T15:41:01.434Z,7.77
2022-12-19T15:44:02.691Z,7.30
2022-12-19T15:46:16.860Z,8.63
2022-12-19T15:48:46.713Z,8.97
2022-12-19T15:51:16.115Z,8.90
2022-12-19T15:53:44.033Z,12.10
2022-12-19T15:56:22.765Z,8.73
2022-12-19T15:58:50.872Z,7.90
2022-12-19T16:01:18.729Z,7.87
2022-12-19T16:03:47.927Z,8.97
2022-12-19T16:06:17.070Z,10.53
2022-12-19T16:08:44.749Z,8.73
2022-12-19T16:11:17.605Z,7.63
2022-12-19T16:13:46.548Z,8.50
2022-12-19T16:16:16.062Z,8.70
2022-12-19T16:18:44.575Z,7.70
2022-12-19T16:21:18.978Z,8.90
2022-12-19T16:23:46.896Z,8.30
2022-12-19T16:26:23.639Z,6.80
2022-12-19T16:28:52.307Z,8.47
2022-12-19T16:31:21.583Z,8.47
2022-12-19T16:33:49.604Z,8.30
2022-12-19T16:36:18.880Z,7.40
2022-12-19T16:38:47.207Z,14.40
2022-12-19T16:41:16.878Z,10.40
2022-12-19T16:43:45.199Z,8.20
2022-12-19T16:46:17.489Z,9.97
2022-12-19T16:48:45.547Z,9.03
2022-12-19T16:51:20.318Z,8.50
2022-12-19T16:53:48.277Z,7.40
2022-12-19T16:56:22.025Z,9.90
2022-12-19T16:58:50.213Z,6.83
2022-12-19T17:01:17.947Z,8.20
2022-12-19T17:03:45.792Z,8.40
2022-12-19T17:06:14.105Z,7.60
2022-12-19T17:08:43.166Z,12.67
2022-12-19T17:11:16.082Z,9.97
2022-12-19T17:13:45.500Z,8.00
2022-12-19T17:16:16.290Z,8.30
2022-12-19T17:18:44.181Z,9.03
2022-12-19T17:21:15.081Z,9.50
2022-12-19T17:23:44.226Z,9.43
2022-12-19T17:26:17.415Z,9.87
2022-12-19T17:28:47.964Z,8.37
2022-12-19T17:31:20.415Z,8.00
2022-12-19T17:33:48.470Z,9.03
2022-12-19T17:36:23.103Z,8.70
2022-12-19T17:38:54.538Z,10.60
2022-12-19T17:41:22.711Z,8.43
2022-12-19T17:43:50.535Z,9.63
2022-12-19T17:46:19.825Z,6.97
2022-12-19T17:48:50.167Z,9.30
2022-12-19T17:51:18.494Z,10.30
2022-12-19T17:53:46.675Z,9.10
2022-12-19T17:56:17.251Z,8.20
2022-12-19T17:58:45.776Z,10.03
2022-12-19T18:01:19.322Z,9.70
2022-12-19T18:03:47.787Z,8.23
2022-12-19T18:06:15.820Z,7.47
2022-12-19T18:08:44.070Z,9.20
2022-12-19T18:11:19.163Z,7.63
2022-12-19T18:13:47.185Z,9.47
2022-12-19T18:16:16.897Z,10.80
2022-12-19T18:18:44.930Z,12.13
2022-12-19T18:21:14.251Z,8.63
2022-12-19T18:23:42.038Z,8.20
2022-12-19T18:26:10.981Z,9.23
2022-12-19T18:28:40.556Z,8.80
2022-12-19T18:31:14.599Z,8.73
2022-12-19T18:33:43.788Z,8.07
2022-12-19T18:36:16.394Z,8.13
2022-12-19T18:38:44.474Z,8.40
2022-12-19T18:41:12.803Z,9.47
2022-12-19T18:43:42.410Z,7.60
2022-12-19T18:46:13.021Z,7.43
2022-12-19T18:48:41.246Z,8.13
2022-12-19T18:51:14.339Z,7.77
2022-12-19T18:53:42.193Z,6.80
2022-12-19T18:56:09.936Z,8.53
2022-12-19T18:58:37.753Z,7.70
2022-12-19T19:01:07.598Z,7.87
2022-12-19T19:03:37.843Z,8.07
2022-12-19T19:06:06.444Z,7.50
2022-12-19T19:08:35.044Z,7.87
2022-12-19T19:11:03.167Z,9.27
2022-12-19T19:13:31.514Z,9.23
2022-12-19T19:16:01.679Z,7.97
2022-12-19T19:18:32.359Z,7.50
2022-12-19T19:21:01.405Z,11.20
2022-12-19T19:23:30.893Z,7.93
2022-12-19T19:25:58.913Z,7.43
2022-12-19T19:28:26.835Z,6.97
2022-12-19T19:30:55.175Z,6.97
2022-12-19T19:33:25.075Z,6.87
2022-12-19T19:35:55.604Z,8.83
2022-12-19T19:38:23.734Z,6.70
2022-12-19T19:40:51.720Z,10.70
2022-12-19T19:43:19.813Z,9.03
2022-12-19T19:45:47.927Z,7.53
2022-12-19T19:48:15.730Z,6.13
2022-12-19T19:50:43.554Z,7.93
2022-12-19T19:53:12.660Z,8.17
2022-12-19T19:55:40.680Z,6.43
2022-12-19T19:58:08.773Z,8.47
2022-12-19T20:00:37.058Z,9.43
2022-12-19T20:03:08.308Z,7.87
2022-12-19T20:05:37.537Z,9.83
2022-12-19T20:08:05.872Z,11.20
2022-12-19T20:10:35.633Z,8.90
2022-12-19T20:13:03.497Z,8.00
2022-12-19T20:15:31.685Z,10.30
2022-12-19T20:17:59.770Z,12.50
2022-12-19T20:20:27.850Z,9.80
2022-12-19T20:22:55.895Z,7.17
2022-12-19T20:25:23.908Z,8.63
2022-12-19T20:27:53.763Z,9.90
2022-12-19T20:30:21.886Z,8.53
2022-12-19T20:32:49.896Z,7.40
2022-12-19T20:35:17.944Z,7.70
2022-12-19T20:37:46.309Z,8.47
2022-12-19T20:40:14.266Z,6.37
2022-12-19T20:42:42.656Z,7.27
2022-12-19T20:45:12.193Z,6.07
2022-12-19T20:47:40.505Z,7.70
2022-12-19T20:50:09.408Z,9.10
2022-12-19T20:52:37.767Z,7.20
2022-12-19T20:55:06.132Z,7.13
2022-12-19T20:57:33.922Z,6.70
2022-12-19T21:00:02.167Z,8.33
2022-12-19T21:02:52.636Z,6.40
2022-12-19T21:05:20.938Z,7.50
2022-12-19T21:07:49.075Z,7.67
2022-12-19T21:10:17.045Z,6.93
2022-12-19T21:12:47.947Z,7.23
2022-12-19T21:15:16.367Z,6.73
2022-12-19T21:17:45.572Z,7.37
2022-12-19T21:20:14.024Z,6.97
2022-12-19T21:22:41.926Z,8.03
2022-12-19T21:25:10.525Z,6.40
2022-12-19T21:27:38.516Z,6.83
2022-12-19T21:30:07.655Z,5.60
2022-12-19T21:32:35.954Z,7.17
2022-12-19T21:35:06.257Z,6.70
2022-12-19T21:37:39.815Z,7.33
2022-12-19T21:40:12.353Z,6.63
2022-12-19T21:42:40.340Z,7.03
2022-12-19T21:45:09.539Z,7.20
2022-12-19T21:47:39.445Z,7.70
2022-12-19T21:50:10.360Z,7.27
2022-12-19T21:52:38.391Z,7.57
2022-12-19T21:55:07.063Z,9.40
2022-12-19T21:57:38.821Z,5.30
2022-12-19T22:00:09.588Z,6.17
2022-12-19T22:02:37.718Z,7.20
2022-12-19T22:05:06.531Z,6.10
2022-12-19T22:07:36.354Z,7.40
2022-12-19T22:10:04.391Z,8.80
2022-12-19T22:12:32.772Z,5.30
2022-12-19T22:15:00.869Z,5.80
2022-12-19T22:17:29.195Z,5.47
2022-12-19T22:19:56.906Z,5.70
2022-12-19T22:22:25.038Z,5.20
2022-12-19T22:24:54.051Z,6.90
2022-12-19T22:27:22.307Z,7.23
2022-12-19T22:29:50.187Z,6.37
2022-12-19T22:32:18.065Z,6.30
2022-12-19T22:34:48.854Z,5.53
2022-12-19T22:37:16.864Z,7.50
2022-12-19T22:39:44.783Z,5.20
2022-12-19T22:42:14.064Z,11.97
2022-12-19T22:44:42.338Z,4.80
2022-12-19T22:47:10.179Z,6.67
2022-12-19T22:49:38.056Z,5.30
2022-12-19T22:52:05.992Z,5.30
2022-12-19T22:54:34.175Z,5.73
2022-12-19T22:57:01.858Z,6.20
2022-12-19T22:59:30.910Z,5.43
2022-12-19T23:01:58.724Z,5.00
2022-12-19T23:04:27.062Z,5.93
2022-12-19T23:06:54.776Z,6.90
2022-12-19T23:09:22.958Z,6.90
2022-12-19T23:11:50.644Z,5.60
2022-12-19T23:14:19.384Z,6.40
2022-12-19T23:16:48.599Z,5.20
2022-12-19T23:19:17.453Z,6.93
2022-12-19T23:21:45.349Z,5.57
2022-12-19T23:24:13.500Z,7.00
2022-12-19T23:26:41.447Z,4.73
2022-12-19T23:29:10.507Z,6.20
2022-12-19T23:31:40.111Z,5.80
2022-12-19T23:34:10.563Z,5.10
2022-12-19T23:37:09.600Z,5.50
2022-12-19T23:39:26.848Z,5.53
2022-12-19T23:41:54.914Z,6.53
2022-12-19T23:44:23.111Z,7.00
2022-12-19T23:46:51.730Z,7.97
2022-12-19T23:49:20.921Z,5.33
2022-12-19T23:51:48.691Z,5.23
2022-12-19T23:54:17.008Z,5.80
2022-12-19T23:56:44.802Z,5.80
2022-12-19T23:59:12.741Z,5.53
